createdAt,value
2023-01-26T00:01:10.480Z,36.27
2023-01-26T00:03:37.663Z,35.93
2023-01-26T00:06:05.116Z,36.83
2023-01-26T00:08:32.311Z,33.37
2023-01-26T00:11:03.924Z,35.47
2023-01-26T00:13:31.123Z,37.83
2023-01-26T00:15:58.267Z,36.07
2023-01-26T00:18:25.487Z,36.17
2023-01-26T00:20:55.951Z,36.97
2023-01-26T00:23:23.075Z,34.87
2023-01-26T00:25:50.204Z,34.40
2023-01-26T00:28:18.728Z,36.23
2023-01-26T00:30:45.888Z,33.70
2023-01-26T00:33:13.112Z,36.70
2023-01-26T00:35:40.425Z,38.10
2023-01-26T00:38:07.558Z,35.70
2023-01-26T00:40:34.674Z,35.50
2023-01-26T00:43:01.804Z,37.07
2023-01-26T00:45:30.336Z,35.27
2023-01-26T00:47:57.517Z,35.10
2023-01-26T00:50:24.652Z,37.00
2023-01-26T00:52:51.822Z,33.03
2023-01-26T00:55:18.909Z,36.20
2023-01-26T00:57:46.040Z,34.53
2023-01-26T01:00:13.796Z,36.60
2023-01-26T01:02:42.353Z,37.33
2023-01-26T01:05:09.800Z,33.47
2023-01-26T01:07:36.940Z,34.80
2023-01-26T01:10:04.331Z,37.13
2023-01-26T01:12:33.472Z,36.80
2023-01-26T01:15:00.629Z,34.47
2023-01-26T01:17:27.776Z,36.10
2023-01-26T01:19:56.290Z,36.23
2023-01-26T01:22:23.424Z,35.87
2023-01-26T01:24:50.574Z,33.47
2023-01-26T01:27:17.712Z,34.57
2023-01-26T01:29:44.880Z,33.70
2023-01-26T01:32:12.100Z,34.20
2023-01-26T01:34:39.185Z,36.03
2023-01-26T01:37:07.676Z,35.77
2023-01-26T01:39:34.846Z,34.40
2023-01-26T01:42:01.991Z,36.10
2023-01-26T01:44:29.108Z,35.10
2023-01-26T01:46:57.868Z,35.67
2023-01-26T01:49:27.251Z,35.53
2023-01-26T01:51:56.888Z,33.63
2023-01-26T01:54:27.305Z,35.97
2023-01-26T01:56:56.780Z,37.43
2023-01-26T01:59:24.259Z,33.60
2023-01-26T02:01:52.588Z,38.70
2023-01-26T02:04:20.327Z,37.97
2023-01-26T02:06:48.979Z,36.77
2023-01-26T02:09:16.900Z,35.40
2023-01-26T02:11:46.088Z,36.73
2023-01-26T02:14:14.494Z,36.67
2023-01-26T02:16:41.656Z,37.20
2023-01-26T02:19:12.766Z,35.13
2023-01-26T02:21:40.376Z,33.83
2023-01-26T02:24:10.092Z,37.97
2023-01-26T02:26:38.800Z,36.60
2023-01-26T02:29:08.134Z,35.50
2023-01-26T02:31:39.408Z,34.87
2023-01-26T02:34:07.384Z,34.30
2023-01-26T02:36:34.760Z,36.37
2023-01-26T02:39:14.934Z,34.23
2023-01-26T02:41:44.735Z,34.77
2023-01-26T02:44:12.411Z,33.10
2023-01-26T02:46:39.602Z,38.27
2023-01-26T02:49:06.873Z,35.40
2023-01-26T02:51:34.008Z,35.17
2023-01-26T02:54:01.163Z,34.70
2023-01-26T02:56:28.330Z,37.77
2023-01-26T02:58:57.570Z,34.40
2023-01-26T03:01:24.916Z,40.50
2023-01-26T03:03:52.075Z,38.73
2023-01-26T03:06:21.171Z,37.33
2023-01-26T03:08:48.286Z,37.43
2023-01-26T03:11:15.460Z,37.30
2023-01-26T03:13:42.819Z,35.17
2023-01-26T03:16:11.396Z,35.30
2023-01-26T03:18:38.634Z,35.50
2023-01-26T03:21:07.467Z,36.90
2023-01-26T03:23:34.600Z,35.97
2023-01-26T03:26:02.931Z,36.97
2023-01-26T03:28:33.652Z,33.70
2023-01-26T03:31:01.196Z,38.10
2023-01-26T03:33:32.822Z,34.23
2023-01-26T03:36:00.427Z,36.50
2023-01-26T03:38:27.796Z,34.93
2023-01-26T03:40:58.248Z,38.90
2023-01-26T03:43:25.399Z,35.60
2023-01-26T03:45:52.558Z,36.53
2023-01-26T03:48:21.655Z,36.50
2023-01-26T03:50:50.142Z,37.57
2023-01-26T03:53:18.935Z,41.33
2023-01-26T03:55:46.062Z,34.90
2023-01-26T03:58:13.321Z,35.80
2023-01-26T04:00:40.508Z,34.50
2023-01-26T04:03:07.760Z,37.07
2023-01-26T04:05:35.636Z,38.20
2023-01-26T04:08:06.999Z,34.63
2023-01-26T04:10:34.275Z,37.10
2023-01-26T04:13:03.996Z,35.40
2023-01-26T04:15:31.194Z,34.23
2023-01-26T04:17:58.400Z,36.00
2023-01-26T04:20:26.487Z,37.17
2023-01-26T04:22:53.639Z,36.90
2023-01-26T04:25:22.504Z,38.17
2023-01-26T04:27:50.208Z,37.00
2023-01-26T04:30:18.312Z,38.70
2023-01-26T04:32:45.931Z,38.87
2023-01-26T04:35:14.060Z,34.30
2023-01-26T04:37:42.703Z,33.87
2023-01-26T04:40:10.891Z,33.70
2023-01-26T04:42:39.900Z,32.90
2023-01-26T04:45:07.638Z,36.47
2023-01-26T04:47:35.490Z,32.83
2023-01-26T04:50:03.753Z,34.10
2023-01-26T04:52:32.120Z,36.77
2023-01-26T04:54:59.892Z,31.03
2023-01-26T04:57:27.810Z,33.27
2023-01-26T04:59:56.624Z,33.50
2023-01-26T05:02:23.872Z,31.30
2023-01-26T05:04:51.036Z,33.10
2023-01-26T05:07:18.131Z,32.50
2023-01-26T05:09:46.912Z,36.23
2023-01-26T05:12:34.372Z,30.10
2023-01-26T05:15:21.279Z,33.00
2023-01-26T05:17:59.813Z,34.43
2023-01-26T05:20:38.054Z,35.20
2023-01-26T05:23:37.580Z,35.10
2023-01-26T05:26:14.249Z,33.20
2023-01-26T05:28:53.339Z,34.40
2023-01-26T05:31:21.852Z,35.07
2023-01-26T05:33:49.261Z,32.43
2023-01-26T05:36:21.133Z,35.50
2023-01-26T05:38:48.730Z,36.33
2023-01-26T05:41:19.649Z,37.30
2023-01-26T05:44:13.387Z,37.37
2023-01-26T05:46:49.029Z,35.80
2023-01-26T05:49:16.344Z,35.77
2023-01-26T05:51:43.944Z,35.40
2023-01-26T05:54:11.156Z,38.63
2023-01-26T05:56:38.274Z,30.80
2023-01-26T05:59:07.556Z,32.17
2023-01-26T06:01:34.872Z,29.90
2023-01-26T06:04:07.000Z,33.10
2023-01-26T06:06:55.083Z,32.00
2023-01-26T06:09:27.302Z,30.83
2023-01-26T06:12:26.846Z,28.47
2023-01-26T06:14:56.831Z,33.23
2023-01-26T06:17:27.184Z,31.57
2023-01-26T06:20:00.161Z,31.50
2023-01-26T06:22:27.480Z,28.87
2023-01-26T06:24:54.608Z,30.47
2023-01-26T06:27:21.790Z,28.63
2023-01-26T06:29:51.061Z,30.40
2023-01-26T06:32:18.326Z,27.20
2023-01-26T06:34:48.733Z,27.53
2023-01-26T06:37:17.300Z,29.30
2023-01-26T06:39:44.640Z,29.17
2023-01-26T06:42:12.440Z,27.63
2023-01-26T06:44:39.559Z,28.57
2023-01-26T06:47:07.637Z,27.77
2023-01-26T06:49:35.265Z,27.87
2023-01-26T06:52:11.125Z,27.97
2023-01-26T06:54:48.452Z,29.03
2023-01-26T06:57:27.282Z,28.03
2023-01-26T07:00:26.833Z,29.00
2023-01-26T07:02:56.965Z,30.20
2023-01-26T07:05:24.059Z,27.30
2023-01-26T07:07:51.210Z,28.83
2023-01-26T07:10:19.831Z,29.47
2023-01-26T07:12:47.154Z,29.27
2023-01-26T07:15:14.330Z,27.63
2023-01-26T07:17:41.588Z,28.67
2023-01-26T07:20:09.631Z,30.23
2023-01-26T07:22:36.985Z,30.00
2023-01-26T07:25:04.235Z,28.57
2023-01-26T07:27:32.696Z,29.17
2023-01-26T07:29:59.862Z,28.00
2023-01-26T07:32:27.081Z,28.63
2023-01-26T07:34:54.229Z,26.67
2023-01-26T07:37:21.352Z,26.93
2023-01-26T07:39:48.479Z,29.63
2023-01-26T07:42:15.616Z,27.50
2023-01-26T07:44:49.603Z,26.80
2023-01-26T07:47:17.059Z,28.70
2023-01-26T07:49:44.421Z,26.27
2023-01-26T07:52:11.586Z,28.60
2023-01-26T07:54:38.738Z,25.83
2023-01-26T07:57:05.863Z,29.37
2023-01-26T07:59:33.057Z,31.20
2023-01-26T08:02:01.578Z,27.80
2023-01-26T08:04:28.845Z,28.97
2023-01-26T08:06:55.990Z,29.17
2023-01-26T08:09:23.219Z,29.97
2023-01-26T08:11:50.373Z,29.80
2023-01-26T08:14:17.680Z,27.60
2023-01-26T08:16:44.830Z,30.17
2023-01-26T08:19:13.350Z,29.80
2023-01-26T08:21:40.486Z,35.60
2023-01-26T08:24:07.769Z,32.33
2023-01-26T08:26:34.906Z,29.33
2023-01-26T08:29:02.225Z,27.97
2023-01-26T08:31:29.337Z,29.27
2023-01-26T08:33:56.824Z,28.33
2023-01-26T08:36:25.376Z,28.73
2023-01-26T08:38:52.778Z,29.30
2023-01-26T08:41:19.931Z,26.90
2023-01-26T08:43:47.240Z,29.70
2023-01-26T08:46:14.410Z,28.40
2023-01-26T08:48:41.603Z,29.87
2023-01-26T08:51:08.935Z,29.17
2023-01-26T08:53:38.369Z,26.00
2023-01-26T08:56:06.174Z,25.23
2023-01-26T08:58:33.293Z,27.73
2023-01-26T09:01:00.443Z,26.70
2023-01-26T09:03:27.571Z,31.75
2023-01-26T09:05:59.339Z,27.60
2023-01-26T09:08:26.494Z,27.10
2023-01-26T09:10:54.970Z,26.73
2023-01-26T09:13:22.234Z,28.67
2023-01-26T09:15:49.385Z,27.70
2023-01-26T09:18:16.512Z,27.23
2023-01-26T09:20:43.661Z,29.73
2023-01-26T09:23:11.098Z,28.40
2023-01-26T09:25:38.430Z,32.83
2023-01-26T09:28:07.027Z,32.00
2023-01-26T09:30:34.690Z,28.30
2023-01-26T09:33:02.718Z,30.23
2023-01-26T09:35:30.318Z,31.37
2023-01-26T09:37:57.439Z,29.47
2023-01-26T09:40:30.427Z,27.70
2023-01-26T09:43:05.299Z,28.33
2023-01-26T09:45:36.452Z,29.83
2023-01-26T09:48:10.046Z,28.67
2023-01-26T09:50:41.666Z,27.57
2023-01-26T09:53:13.367Z,25.43
2023-01-26T09:55:40.995Z,27.63
2023-01-26T09:58:13.560Z,24.80
2023-01-26T10:00:46.294Z,25.50
2023-01-26T10:03:18.551Z,24.13
2023-01-26T10:05:48.083Z,25.93
2023-01-26T10:08:35.246Z,27.37
2023-01-26T10:11:04.341Z,33.50
2023-01-26T10:13:31.576Z,27.37
2023-01-26T10:16:01.846Z,29.10
2023-01-26T10:18:31.011Z,28.10
2023-01-26T10:20:59.687Z,26.87
2023-01-26T10:23:28.615Z,28.37
2023-01-26T10:25:59.097Z,26.60
2023-01-26T10:28:28.478Z,28.23
2023-01-26T10:30:56.024Z,27.63
2023-01-26T10:33:25.976Z,26.33
2023-01-26T10:35:53.346Z,25.80
2023-01-26T10:38:39.491Z,25.63
2023-01-26T10:41:07.454Z,25.80
2023-01-26T10:43:36.429Z,27.53
2023-01-26T10:46:04.124Z,26.37
2023-01-26T10:48:32.767Z,26.80
2023-01-26T10:51:14.886Z,27.10
2023-01-26T10:53:42.028Z,23.63
2023-01-26T10:56:12.689Z,25.83
2023-01-26T10:58:44.414Z,24.17
2023-01-26T11:01:11.867Z,21.40
2023-01-26T11:03:40.762Z,24.30
2023-01-26T11:06:09.111Z,23.40
2023-01-26T11:08:37.395Z,24.30
2023-01-26T11:11:05.498Z,25.23
2023-01-26T11:13:32.606Z,24.27
2023-01-26T11:16:04.204Z,21.73
2023-01-26T11:18:40.503Z,24.27
2023-01-26T11:21:10.832Z,21.80
2023-01-26T11:23:46.431Z,22.43
2023-01-26T11:26:32.482Z,20.27
2023-01-26T11:29:07.710Z,20.97
2023-01-26T11:31:39.746Z,18.37
2023-01-26T11:34:13.254Z,18.70
2023-01-26T11:36:46.408Z,19.00
2023-01-26T11:39:19.643Z,20.07
2023-01-26T11:41:53.553Z,17.03
2023-01-26T11:44:26.002Z,18.97
2023-01-26T11:46:58.832Z,19.93
2023-01-26T11:49:36.607Z,19.40
2023-01-26T11:52:10.019Z,17.50
2023-01-26T11:54:42.747Z,17.90
2023-01-26T11:57:14.989Z,18.67
2023-01-26T11:59:43.388Z,20.03
2023-01-26T12:02:20.812Z,18.47
2023-01-26T12:04:48.114Z,18.50
2023-01-26T12:07:19.778Z,19.57
2023-01-26T12:09:47.454Z,16.23
2023-01-26T12:12:17.918Z,18.00
2023-01-26T12:14:47.522Z,17.93
2023-01-26T12:17:23.796Z,18.57
2023-01-26T12:19:54.168Z,18.63
2023-01-26T12:22:24.712Z,16.53
2023-01-26T12:25:17.710Z,16.90
2023-01-26T12:27:43.139Z,15.87
2023-01-26T12:30:19.509Z,14.50
2023-01-26T12:32:46.734Z,14.33
2023-01-26T12:35:14.302Z,14.63
2023-01-26T12:37:46.150Z,13.70
2023-01-26T12:40:19.549Z,14.17
2023-01-26T12:42:49.834Z,14.50
2023-01-26T12:45:19.223Z,12.83
2023-01-26T12:47:49.004Z,13.80
2023-01-26T12:50:20.810Z,13.33
2023-01-26T12:52:51.724Z,14.33
2023-01-26T12:55:20.563Z,14.03
2023-01-26T12:57:49.722Z,14.30
2023-01-26T13:00:21.554Z,13.20
2023-01-26T13:02:50.151Z,12.60
2023-01-26T13:05:24.748Z,15.77
2023-01-26T13:07:53.248Z,14.43
2023-01-26T13:10:28.418Z,15.67
2023-01-26T13:12:56.810Z,15.77
2023-01-26T13:15:24.899Z,15.40
2023-01-26T13:17:53.416Z,16.03
2023-01-26T13:20:53.247Z,15.50
2023-01-26T13:23:54.342Z,15.37
2023-01-26T13:26:40.915Z,13.13
2023-01-26T13:29:31.988Z,13.00
2023-01-26T13:32:00.065Z,12.30
2023-01-26T13:34:28.847Z,13.47
2023-01-26T13:36:56.960Z,12.03
2023-01-26T13:39:28.528Z,13.20
2023-01-26T13:41:55.715Z,13.10
2023-01-26T13:44:24.444Z,13.00
2023-01-26T13:46:54.647Z,12.30
2023-01-26T13:49:25.769Z,13.90
2023-01-26T13:51:52.996Z,14.07
2023-01-26T13:54:20.322Z,13.93
2023-01-26T13:57:00.514Z,12.50
2023-01-26T13:59:27.683Z,16.17
2023-01-26T14:01:56.960Z,15.47
2023-01-26T14:04:25.346Z,17.43
2023-01-26T14:06:53.972Z,17.93
2023-01-26T14:09:21.205Z,18.10
2023-01-26T14:11:54.415Z,20.53
2023-01-26T14:14:24.435Z,19.93
2023-01-26T14:16:51.590Z,21.23
2023-01-26T14:19:21.027Z,22.17
2023-01-26T14:21:49.704Z,20.67
2023-01-26T14:24:17.069Z,21.47
2023-01-26T14:26:44.573Z,20.30
2023-01-26T14:29:12.637Z,22.00
2023-01-26T14:31:39.840Z,20.80
2023-01-26T14:34:10.023Z,19.63
2023-01-26T14:36:38.474Z,20.53
2023-01-26T14:39:15.767Z,22.23
2023-01-26T14:41:43.323Z,21.37
2023-01-26T14:44:16.499Z,23.50
2023-01-26T14:46:50.627Z,22.60
2023-01-26T14:49:19.961Z,21.97
2023-01-26T14:51:50.423Z,26.17
2023-01-26T14:54:19.531Z,25.17
2023-01-26T14:56:47.515Z,25.00
2023-01-26T14:59:19.260Z,29.47
2023-01-26T15:01:46.396Z,26.00
2023-01-26T15:04:21.217Z,26.97
2023-01-26T15:06:49.672Z,28.20
2023-01-26T15:09:21.719Z,27.40
2023-01-26T15:11:53.104Z,28.27
2023-01-26T15:14:41.014Z,29.33
2023-01-26T15:17:08.205Z,27.20
2023-01-26T15:19:41.873Z,29.70
2023-01-26T15:22:21.096Z,27.47
2023-01-26T15:24:59.355Z,26.47
2023-01-26T15:27:30.651Z,27.50
2023-01-26T15:29:58.422Z,29.97
2023-01-26T15:32:29.126Z,26.93
2023-01-26T15:35:03.877Z,29.73
2023-01-26T15:37:33.283Z,30.13
2023-01-26T15:40:00.464Z,29.53
2023-01-26T15:42:28.284Z,29.77
2023-01-26T15:44:55.375Z,30.17
2023-01-26T15:47:22.543Z,30.17
2023-01-26T15:49:49.714Z,30.67
2023-01-26T15:52:17.406Z,31.87
2023-01-26T15:54:45.932Z,31.60
2023-01-26T15:57:13.669Z,31.23
2023-01-26T15:59:41.300Z,32.23
2023-01-26T16:02:13.320Z,33.37
2023-01-26T16:04:40.505Z,31.13
2023-01-26T16:07:10.305Z,30.23
2023-01-26T16:09:37.471Z,31.63
2023-01-26T16:12:06.178Z,31.97
2023-01-26T16:14:33.307Z,32.00
2023-01-26T16:17:00.414Z,29.70
2023-01-26T16:19:35.354Z,31.77
2023-01-26T16:22:02.967Z,32.63
2023-01-26T16:24:30.148Z,34.13
2023-01-26T16:26:57.287Z,30.77
2023-01-26T16:29:25.830Z,32.33
2023-01-26T16:31:53.033Z,32.27
2023-01-26T16:34:20.176Z,33.37
2023-01-26T16:36:47.316Z,33.30
2023-01-26T16:39:14.448Z,30.20
2023-01-26T16:41:41.569Z,27.83
2023-01-26T16:44:12.584Z,28.80
2023-01-26T16:46:41.140Z,30.27
2023-01-26T16:49:12.083Z,30.70
2023-01-26T16:51:39.322Z,32.67
2023-01-26T16:54:06.418Z,33.03
2023-01-26T16:56:33.637Z,34.50
2023-01-26T16:59:00.796Z,32.80
2023-01-26T17:01:29.820Z,34.53
2023-01-26T17:03:58.345Z,31.80
2023-01-26T17:06:25.605Z,28.77
2023-01-26T17:08:52.826Z,30.47
2023-01-26T17:11:20.617Z,30.57
2023-01-26T17:13:47.849Z,29.70
2023-01-26T17:16:15.949Z,32.33
2023-01-26T17:18:43.256Z,29.67
2023-01-26T17:21:11.718Z,30.20
2023-01-26T17:23:38.935Z,30.50
2023-01-26T17:26:06.064Z,32.00
2023-01-26T17:28:33.156Z,34.60
2023-01-26T17:31:01.509Z,31.40
2023-01-26T17:33:29.139Z,34.50
2023-01-26T17:35:59.754Z,30.50
2023-01-26T17:38:28.252Z,33.43
2023-01-26T17:40:55.727Z,30.83
2023-01-26T17:43:22.868Z,31.87
2023-01-26T17:45:50.146Z,33.23
2023-01-26T17:48:17.297Z,31.80
2023-01-26T17:50:47.728Z,33.70
2023-01-26T17:53:15.043Z,33.30
2023-01-26T17:55:44.071Z,34.10
2023-01-26T17:58:11.209Z,32.33
2023-01-26T18:00:38.341Z,32.83
2023-01-26T18:03:06.019Z,32.30
2023-01-26T18:05:33.433Z,35.63
2023-01-26T18:08:00.607Z,35.30
2023-01-26T18:10:27.868Z,36.90
2023-01-26T18:12:56.395Z,33.50
2023-01-26T18:15:23.527Z,33.77
2023-01-26T18:17:50.848Z,34.97
2023-01-26T18:20:18.251Z,32.23
2023-01-26T18:22:45.365Z,32.27
2023-01-26T18:25:12.732Z,32.17
2023-01-26T18:27:40.093Z,34.40
2023-01-26T18:30:09.606Z,30.73
2023-01-26T18:32:36.719Z,35.97
2023-01-26T18:35:04.026Z,33.17
2023-01-26T18:37:33.046Z,33.23
2023-01-26T18:40:00.220Z,32.80
2023-01-26T18:42:27.359Z,32.97
2023-01-26T18:44:54.473Z,32.83
2023-01-26T18:47:22.945Z,34.90
2023-01-26T18:49:50.070Z,28.97
2023-01-26T18:52:17.295Z,30.77
2023-01-26T18:54:44.447Z,29.60
2023-01-26T18:57:11.683Z,30.97
2023-01-26T18:59:38.793Z,31.40
2023-01-26T19:02:06.150Z,31.60
2023-01-26T19:04:34.698Z,33.07
2023-01-26T19:07:01.800Z,31.80
2023-01-26T19:09:31.199Z,32.50
2023-01-26T19:11:58.372Z,32.10
2023-01-26T19:14:25.563Z,35.30
2023-01-26T19:16:52.830Z,32.60
2023-01-26T19:19:19.981Z,31.47
2023-01-26T19:21:48.454Z,30.23
2023-01-26T19:24:15.674Z,27.20
2023-01-26T19:26:42.869Z,29.13
2023-01-26T19:29:10.165Z,29.00
2023-01-26T19:31:37.453Z,27.63
2023-01-26T19:34:06.112Z,29.20
2023-01-26T19:36:34.436Z,30.37
2023-01-26T19:39:02.975Z,28.30
2023-01-26T19:41:30.120Z,29.50
2023-01-26T19:43:57.544Z,26.53
2023-01-26T19:46:24.690Z,27.47
2023-01-26T19:48:51.864Z,30.00
2023-01-26T19:51:19.569Z,34.43
2023-01-26T19:53:47.275Z,36.20
2023-01-26T19:56:16.532Z,30.17
2023-01-26T19:58:44.236Z,29.20
2023-01-26T20:01:12.473Z,28.30
2023-01-26T20:03:39.728Z,30.43
2023-01-26T20:06:07.202Z,33.70
2023-01-26T20:08:34.336Z,32.80
2023-01-26T20:11:04.621Z,32.03
2023-01-26T20:13:33.434Z,32.27
2023-01-26T20:16:00.757Z,33.23
2023-01-26T20:18:27.889Z,36.03
2023-01-26T20:20:58.284Z,33.40
2023-01-26T20:23:27.599Z,33.23
2023-01-26T20:26:00.568Z,32.47
2023-01-26T20:28:27.719Z,32.80
2023-01-26T20:30:56.257Z,35.53
2023-01-26T20:33:23.450Z,32.50
2023-01-26T20:35:50.552Z,33.00
2023-01-26T20:38:17.661Z,34.40
2023-01-26T20:40:44.829Z,36.67
2023-01-26T20:43:11.936Z,34.83
2023-01-26T20:45:40.162Z,34.67
2023-01-26T20:48:08.707Z,34.03
2023-01-26T20:50:36.107Z,33.23
2023-01-26T20:53:03.353Z,34.70
2023-01-26T20:55:30.479Z,32.80
2023-01-26T20:57:57.585Z,31.07
2023-01-26T21:00:24.701Z,30.30
2023-01-26T21:02:51.806Z,32.90
2023-01-26T21:05:20.282Z,38.30
2023-01-26T21:07:47.538Z,32.47
2023-01-26T21:10:14.860Z,28.90
2023-01-26T21:12:41.955Z,30.60
2023-01-26T21:15:09.523Z,26.83
2023-01-26T21:17:36.623Z,27.90
2023-01-26T21:20:03.987Z,26.23
2023-01-26T21:22:32.437Z,25.63
2023-01-26T21:24:59.581Z,21.97
2023-01-26T21:27:26.696Z,24.70
2023-01-26T21:29:53.860Z,22.60
2023-01-26T21:32:20.990Z,24.53
2023-01-26T21:34:48.089Z,23.33
2023-01-26T21:37:15.206Z,22.87
2023-01-26T21:39:43.669Z,21.30
2023-01-26T21:42:10.795Z,20.63
2023-01-26T21:44:37.911Z,20.60
2023-01-26T21:47:05.067Z,19.40
2023-01-26T21:49:32.364Z,19.83
2023-01-26T21:51:59.516Z,14.83
2023-01-26T21:54:26.803Z,17.43
2023-01-26T21:56:55.263Z,16.77
2023-01-26T21:59:22.576Z,17.10
2023-01-26T22:01:50.608Z,16.70
2023-01-26T22:04:18.769Z,18.20
2023-01-26T22:06:45.934Z,18.07
2023-01-26T22:09:14.012Z,14.03
2023-01-26T22:11:41.148Z,13.70
2023-01-26T22:14:13.409Z,13.97
2023-01-26T22:16:40.539Z,13.20
2023-01-26T22:19:09.086Z,11.90
2023-01-26T22:21:36.230Z,11.43
2023-01-26T22:24:03.426Z,9.40
2023-01-26T22:26:30.630Z,11.00
2023-01-26T22:28:58.684Z,8.73
2023-01-26T22:31:27.927Z,7.80
2023-01-26T22:33:55.247Z,7.77
2023-01-26T22:36:22.780Z,9.40
2023-01-26T22:38:51.188Z,7.30
2023-01-26T22:41:19.287Z,6.20
2023-01-26T22:43:46.628Z,7.80
2023-01-26T22:46:13.761Z,7.57
2023-01-26T22:48:42.208Z,6.73
2023-01-26T22:51:09.713Z,6.20
2023-01-26T22:53:36.962Z,7.03
2023-01-26T22:56:04.419Z,6.27
2023-01-26T22:58:33.299Z,5.77
2023-01-26T23:01:07.795Z,6.43
2023-01-26T23:03:35.038Z,7.43
2023-01-26T23:06:04.912Z,5.20
2023-01-26T23:08:32.536Z,7.43
2023-01-26T23:11:03.247Z,7.13
2023-01-26T23:13:30.567Z,5.70
2023-01-26T23:15:57.727Z,5.90
2023-01-26T23:18:24.859Z,5.43
2023-01-26T23:20:52.085Z,4.93
2023-01-26T23:23:20.609Z,5.07
2023-01-26T23:25:47.715Z,5.03
2023-01-26T23:28:14.859Z,5.07
2023-01-26T23:30:42.201Z,5.23
2023-01-26T23:33:09.389Z,5.60
2023-01-26T23:35:37.183Z,4.57
2023-01-26T23:38:04.369Z,5.80
2023-01-26T23:40:32.811Z,5.20
2023-01-26T23:43:15.357Z,4.40
2023-01-26T23:45:43.358Z,4.70
2023-01-26T23:48:10.661Z,4.37
2023-01-26T23:50:37.763Z,5.17
2023-01-26T23:53:04.922Z,4.90
2023-01-26T23:55:34.501Z,5.10
2023-01-26T23:58:01.660Z,5.30
